Aérodrome :
LOGIN :

S'inscrire | Disclaimer

   EN    FR    IT 

 










Légende :    VFR   VFR Marginal   IFR   IFR Intensif   IFR Très Intensif
Visi : 
Plafond : 
>= 8 km
>= 3000ft
5 à 8 km
1000 à 3000 ft
1500m à 5 km
500 à 1000 ft
800 à 1500m
200 à 500 ft
< 800m
< 200 ft
Symboles :   Orages  Brouillard  Fortes neiges  Fortes précipitations  Vent > 20 kt
SIGMETs :   Divers  Orages  Givrage  Turbulence  Onde Orograph.  Cendres Volcan.






- Altitude de l'aérodrome : 392 ft
- Code IATA : CDG


LFPG - Paris-Aeroport Charles De Gaulle

DERNIER METAR :
  • 031930Z AUTO 02011KT 9999 ///CB 20/10 Q1001 TEMPO VRB15G30KT 4000 TSRA

METARs EXPIRÉS :
  • 031900Z AUTO 01010KT 9999 VCTS ///CB 21/10 Q1001 TEMPO VRB15G30KT 4000 TSRA
  • 031830Z AUTO 03011KT CAVOK 22/10 Q1002 TEMPO VRB15G30KT 4000 TSRA SCT040CB
  • 031800Z AUTO 02015KT CAVOK 23/11 Q1001 TEMPO VRB15G30KT 4000 TSRA SCT040CB
  • 031730Z AUTO 03010KT 010V080 9999 ///CB 24/11 Q1001 TEMPO VRB15G30KT 4000 TSRA
  • 031700Z AUTO 03010KT 340V110 CAVOK 24/11 Q1001 TEMPO VRB15G30KT 4000 TSRA SCT040CB

TAF AMD TAF LFPG
Valide du 03 à 18h jusqu'au 05 à 00h UTC


031732Z 0318/0424 04008KT CAVOK TX24/0318Z TN13/0404Z
TEMPO 0318/0420 FEW040TCU
PROB40
TEMPO 0318/0323 VRB15G30KT 4000 TSRA SCT040CB
PROB30
TEMPO 0323/0407 4000 -TSRA BKN012 SCT020CB
BECMG 0409/0412 32012KT
PROB40
TEMPO 0413/0417 32015G25KT 4000 SHRA
ATIS : +33 1 48 62 10 92



MET'MAP, la Météo Aéronautique d'un coup d'oeil ! - Copyright ORBIFLY Décembre 2007 - Disclaimer

ORBIFLY MET'MAP TEAM :

Programmation & Développement : Alexandra Zaïnal
Sur une idée originale de : Baudouin d'Aumeries
Assistance à la programmation : Marc-Olivier Méhu
Soutien technique & logistique : Manuel Goepfert

Contact : metmap@orbifly.com




SOURCES & CREDITS :

   NOAA